createdAt,value
2022-12-08T00:02:01.849Z,56.00
2022-12-08T00:04:28.430Z,54.25
2022-12-08T00:07:13.385Z,56.40
2022-12-08T00:09:41.735Z,58.50
2022-12-08T00:12:09.631Z,58.60
2022-12-08T00:14:38.293Z,64.67
2022-12-08T00:17:05.462Z,61.00
2022-12-08T00:19:32.256Z,54.25
2022-12-08T00:21:59.263Z,58.00
2022-12-08T00:24:29.447Z,58.00
2022-12-08T00:26:55.880Z,57.25
2022-12-08T00:29:22.347Z,59.50
2022-12-08T00:31:48.879Z,59.00
2022-12-08T00:34:15.755Z,60.00
2022-12-08T00:36:42.304Z,60.00
2022-12-08T00:39:08.883Z,50.25
2022-12-08T00:41:54.094Z,52.00
2022-12-08T00:44:20.536Z,56.00
2022-12-08T00:46:47.468Z,52.40
2022-12-08T00:49:14.665Z,54.20
2022-12-08T00:51:41.309Z,55.25
2022-12-08T00:54:08.080Z,53.00
2022-12-08T00:56:34.924Z,57.25
2022-12-08T00:59:01.786Z,58.75
2022-12-08T01:01:28.325Z,56.00
2022-12-08T01:03:54.886Z,56.75
2022-12-08T01:06:21.376Z,58.60
2022-12-08T01:08:47.880Z,59.00
2022-12-08T01:11:15.890Z,63.25
2022-12-08T01:13:42.375Z,59.75
2022-12-08T01:16:08.961Z,64.50
2022-12-08T01:18:35.920Z,66.20
2022-12-08T01:21:06.143Z,62.75
2022-12-08T01:23:32.967Z,65.60
2022-12-08T01:26:03.543Z,60.00
2022-12-08T01:28:31.036Z,62.50
2022-12-08T01:30:58.276Z,60.00
2022-12-08T01:33:25.093Z,52.60
2022-12-08T01:35:51.882Z,60.25
2022-12-08T01:38:18.429Z,59.25
2022-12-08T01:40:45.412Z,63.50
2022-12-08T01:43:19.623Z,58.50
2022-12-08T01:45:46.556Z,60.40
2022-12-08T01:48:21.636Z,60.25
2022-12-08T01:50:49.065Z,61.25
2022-12-08T01:53:35.882Z,62.40
2022-12-08T01:56:15.556Z,57.00
2022-12-08T01:58:44.441Z,58.00
2022-12-08T02:01:10.930Z,55.80
2022-12-08T02:03:43.482Z,51.40
2022-12-08T02:06:10.229Z,55.75
2022-12-08T02:08:39.029Z,51.00
2022-12-08T02:11:06.236Z,54.75
2022-12-08T02:13:32.825Z,58.00
2022-12-08T02:16:10.736Z,52.40
2022-12-08T02:19:14.787Z,56.00
2022-12-08T02:21:46.428Z,59.60
2022-12-08T02:24:16.067Z,56.00
2022-12-08T02:27:00.466Z,55.40
2022-12-08T02:29:45.600Z,56.50
2022-12-08T02:32:24.177Z,48.00
2022-12-08T02:34:50.675Z,53.25
2022-12-08T02:37:22.773Z,49.80
2022-12-08T02:40:08.156Z,54.00
2022-12-08T02:43:01.201Z,51.00
2022-12-08T02:45:49.123Z,52.00
2022-12-08T02:48:15.634Z,49.50
2022-12-08T02:50:42.379Z,48.20
2022-12-08T02:55:46.622Z,47.50
2022-12-08T02:58:39.501Z,51.25
2022-12-08T03:01:24.450Z,55.25
2022-12-08T03:04:11.184Z,54.50
2022-12-08T03:07:02.919Z,58.60
2022-12-08T03:09:29.609Z,55.25
2022-12-08T03:12:01.222Z,54.80
2022-12-08T03:14:28.309Z,52.80
2022-12-08T03:16:57.296Z,51.00
2022-12-08T03:19:28.371Z,48.50
2022-12-08T03:22:03.290Z,49.25
2022-12-08T03:24:35.053Z,58.00
2022-12-08T03:27:07.192Z,54.20
2022-12-08T03:29:33.884Z,53.40
2022-12-08T03:32:03.402Z,54.00
2022-12-08T03:34:30.389Z,53.20
2022-12-08T03:36:56.904Z,51.00
2022-12-08T03:39:23.372Z,57.40
2022-12-08T03:41:49.850Z,59.75
2022-12-08T03:44:16.259Z,60.25
2022-12-08T03:46:42.762Z,60.50
2022-12-08T03:49:09.256Z,53.00
2022-12-08T03:51:35.747Z,55.50
2022-12-08T03:54:02.223Z,57.00
2022-12-08T03:56:30.707Z,57.40
2022-12-08T03:58:57.260Z,60.50
2022-12-08T04:01:24.363Z,56.80
2022-12-08T04:03:50.991Z,60.50
2022-12-08T04:06:17.474Z,58.50
2022-12-08T04:08:44.117Z,54.00
2022-12-08T04:11:11.126Z,52.00
2022-12-08T04:13:38.344Z,58.25
2022-12-08T04:16:05.462Z,61.80
2022-12-08T04:18:32.391Z,55.60
2022-12-08T04:20:58.836Z,58.40
2022-12-08T04:23:25.366Z,52.40
2022-12-08T04:25:52.466Z,53.25
2022-12-08T04:28:19.145Z,53.00
2022-12-08T04:30:45.701Z,55.50
2022-12-08T04:33:12.210Z,55.40
2022-12-08T04:35:38.689Z,60.00
2022-12-08T04:38:05.210Z,52.00
2022-12-08T04:40:31.714Z,51.00
2022-12-08T04:42:58.155Z,52.40
2022-12-08T04:45:24.589Z,55.20
2022-12-08T04:47:51.208Z,69.40
2022-12-08T04:50:17.743Z,67.80
2022-12-08T04:52:44.268Z,69.40
2022-12-08T04:55:11.381Z,64.20
2022-12-08T04:57:37.830Z,61.50
2022-12-08T05:00:05.571Z,58.25
2022-12-08T05:02:33.042Z,57.00
2022-12-08T05:05:00.080Z,55.00
2022-12-08T05:07:26.547Z,57.75
2022-12-08T05:09:53.010Z,57.00
2022-12-08T05:12:19.441Z,63.20
2022-12-08T05:14:46.979Z,60.50
2022-12-08T05:17:13.690Z,58.00
2022-12-08T05:19:40.299Z,60.60
2022-12-08T05:22:06.796Z,62.25
2022-12-08T05:24:33.268Z,56.75
2022-12-08T05:27:00.012Z,56.00
2022-12-08T05:29:26.533Z,55.50
2022-12-08T05:31:53.131Z,56.00
2022-12-08T05:34:19.612Z,60.00
2022-12-08T05:36:46.053Z,71.00
2022-12-08T05:39:13.522Z,65.75
2022-12-08T05:41:40.032Z,63.25
2022-12-08T05:44:06.545Z,66.00
2022-12-08T05:46:33.020Z,64.50
2022-12-08T05:49:00.151Z,68.33
2022-12-08T05:51:26.584Z,61.00
2022-12-08T05:53:53.547Z,60.50
2022-12-08T05:56:20.728Z,61.75
2022-12-08T05:58:47.428Z,59.50
2022-12-08T06:01:20.558Z,63.60
2022-12-08T06:03:47.102Z,52.00
2022-12-08T06:06:13.632Z,60.67
2022-12-08T06:08:40.084Z,74.00
2022-12-08T06:11:06.580Z,76.00
2022-12-08T06:13:33.029Z,67.00
2022-12-08T06:16:06.170Z,60.60
2022-12-08T06:18:33.125Z,63.20
2022-12-08T06:21:06.192Z,60.80
2022-12-08T06:23:32.921Z,124.75
2022-12-08T06:26:07.293Z,102.20
2022-12-08T06:28:33.765Z,82.75
2022-12-08T06:31:00.292Z,70.00
2022-12-08T06:33:26.775Z,81.60
2022-12-08T06:35:53.303Z,72.50
2022-12-08T06:38:19.749Z,67.00
2022-12-08T06:40:52.775Z,64.50
2022-12-08T06:43:19.316Z,71.20
2022-12-08T06:45:45.880Z,75.75
2022-12-08T06:48:12.375Z,106.25
2022-12-08T06:50:38.836Z,90.40
2022-12-08T06:53:05.892Z,123.80
2022-12-08T06:55:57.806Z,90.33
2022-12-08T06:58:19.628Z,88.75
2022-12-08T07:00:46.434Z,86.40
2022-12-08T07:03:13.220Z,80.75
2022-12-08T07:05:39.692Z,88.50
2022-12-08T07:08:07.210Z,84.00
2022-12-08T07:10:33.786Z,76.00
2022-12-08T07:13:00.416Z,72.50
2022-12-08T07:15:26.898Z,64.00
2022-12-08T07:17:59.387Z,63.00
2022-12-08T07:20:26.501Z,66.00
2022-12-08T07:22:52.945Z,69.00
2022-12-08T07:25:19.612Z,89.00
2022-12-08T07:27:46.169Z,63.00
2022-12-08T07:30:13.087Z,59.40
2022-12-08T07:32:39.695Z,57.20
2022-12-08T07:35:06.907Z,53.50
2022-12-08T07:37:34.237Z,52.75
2022-12-08T07:40:00.858Z,77.75
2022-12-08T07:42:27.301Z,67.75
2022-12-08T07:44:53.732Z,52.00
2022-12-08T07:47:20.202Z,48.60
2022-12-08T07:49:46.657Z,53.20
2022-12-08T07:52:13.127Z,54.00
2022-12-08T07:54:39.538Z,51.20
2022-12-08T07:57:06.613Z,59.00
2022-12-08T07:59:33.400Z,57.60
2022-12-08T08:02:22.306Z,54.60
2022-12-08T08:04:49.949Z,53.75
2022-12-08T08:07:16.476Z,58.60
2022-12-08T08:09:43.092Z,56.40
2022-12-08T08:12:30.160Z,52.20
2022-12-08T08:14:56.399Z,52.50
2022-12-08T08:17:23.000Z,51.00
2022-12-08T08:19:49.492Z,53.50
2022-12-08T08:22:15.995Z,49.25
2022-12-08T08:24:45.024Z,81.20
2022-12-08T08:27:12.086Z,67.25
2022-12-08T08:29:38.576Z,55.20
2022-12-08T08:32:05.036Z,47.75
2022-12-08T08:34:31.493Z,45.80
2022-12-08T08:36:58.049Z,50.40
2022-12-08T08:39:24.584Z,55.50
2022-12-08T08:41:51.085Z,53.00
2022-12-08T08:44:17.555Z,50.80
2022-12-08T08:46:44.064Z,52.00
2022-12-08T08:49:10.599Z,75.20
2022-12-08T08:51:37.067Z,55.00
2022-12-08T08:54:03.599Z,60.75
2022-12-08T08:56:30.181Z,49.00
2022-12-08T08:58:56.782Z,46.00
2022-12-08T09:01:25.566Z,51.00
2022-12-08T09:03:52.508Z,51.00
2022-12-08T09:06:19.614Z,55.00
2022-12-08T09:08:46.783Z,54.00
2022-12-08T09:11:13.634Z,59.25
2022-12-08T09:13:40.108Z,51.00
2022-12-08T09:16:07.963Z,54.25
2022-12-08T09:18:34.677Z,57.50
2022-12-08T09:21:05.743Z,56.80
2022-12-08T09:23:35.353Z,51.00
2022-12-08T09:26:02.969Z,52.25
2022-12-08T09:28:29.422Z,54.80
2022-12-08T09:30:55.917Z,48.20
2022-12-08T09:33:22.397Z,65.40
2022-12-08T09:35:48.879Z,56.80
2022-12-08T09:38:15.362Z,61.50
2022-12-08T09:40:52.453Z,61.60
2022-12-08T09:43:21.869Z,56.75
2022-12-08T09:45:48.761Z,61.00
2022-12-08T09:51:03.514Z,65.75
2022-12-08T09:53:35.783Z,66.25
2022-12-08T09:56:02.947Z,61.50
2022-12-08T09:58:35.462Z,53.50
2022-12-08T10:01:02.318Z,53.00
2022-12-08T10:03:30.679Z,47.50
2022-12-08T10:06:15.756Z,50.60
2022-12-08T10:08:56.907Z,51.40
2022-12-08T10:11:28.069Z,49.50
2022-12-08T10:14:11.074Z,47.00
2022-12-08T10:16:40.433Z,50.00
2022-12-08T10:19:09.876Z,48.80
2022-12-08T10:21:36.347Z,41.00
2022-12-08T10:24:06.480Z,49.25
2022-12-08T10:26:33.209Z,47.40
2022-12-08T10:29:02.851Z,45.00
2022-12-08T10:31:31.051Z,45.00
2022-12-08T10:33:59.342Z,45.60
2022-12-08T10:36:56.172Z,48.40
2022-12-08T10:39:51.912Z,48.60
2022-12-08T10:42:21.494Z,49.80
2022-12-08T10:45:08.195Z,54.00
2022-12-08T10:47:42.516Z,48.80
2022-12-08T10:50:40.916Z,48.75
2022-12-08T10:53:07.403Z,49.00
2022-12-08T10:55:45.479Z,51.60
2022-12-08T10:58:24.725Z,49.50
2022-12-08T11:00:53.867Z,54.50
2022-12-08T11:03:26.738Z,52.00
2022-12-08T11:05:55.662Z,57.00
2022-12-08T11:08:22.175Z,56.25
2022-12-08T11:10:48.829Z,58.00
2022-12-08T11:13:27.567Z,57.40
2022-12-08T11:15:55.385Z,51.60
2022-12-08T11:18:23.023Z,48.00
2022-12-08T11:20:56.205Z,52.75
2022-12-08T11:23:24.755Z,62.00
2022-12-08T11:25:51.812Z,78.00
2022-12-08T11:28:24.864Z,58.60
2022-12-08T11:30:54.913Z,55.20
2022-12-08T11:33:23.135Z,55.20
2022-12-08T11:36:01.531Z,59.60
2022-12-08T11:38:28.783Z,58.80
2022-12-08T11:41:09.477Z,66.00
2022-12-08T11:43:51.549Z,59.60
2022-12-08T11:46:21.456Z,62.25
2022-12-08T11:48:53.564Z,65.25
2022-12-08T11:51:29.923Z,79.60
2022-12-08T11:54:09.068Z,70.75
2022-12-08T11:56:40.564Z,72.20
2022-12-08T11:59:17.409Z,79.40
2022-12-08T12:01:43.956Z,59.80
2022-12-08T12:04:19.614Z,55.80
2022-12-08T12:07:06.558Z,48.00
2022-12-08T12:09:33.017Z,49.50
2022-12-08T12:12:15.857Z,47.50
2022-12-08T12:14:57.775Z,53.00
2022-12-08T12:17:36.593Z,48.00
2022-12-08T12:20:05.588Z,45.00
2022-12-08T12:22:35.056Z,48.40
2022-12-08T12:25:02.290Z,49.00
2022-12-08T12:27:32.889Z,52.20
2022-12-08T12:30:06.291Z,49.40
2022-12-08T12:32:44.393Z,49.75
2022-12-08T12:35:24.041Z,46.00
2022-12-08T12:37:56.134Z,44.80
2022-12-08T12:40:24.350Z,44.60
2022-12-08T12:42:56.778Z,43.00
2022-12-08T12:45:23.257Z,41.75
2022-12-08T12:48:12.515Z,37.00
2022-12-08T12:50:45.980Z,41.40
2022-12-08T12:53:19.089Z,43.00
2022-12-08T12:55:45.530Z,40.00
2022-12-08T12:58:42.851Z,42.25
2022-12-08T13:01:17.041Z,42.50
2022-12-08T13:03:45.769Z,46.00
2022-12-08T13:06:14.745Z,42.67
2022-12-08T13:08:49.985Z,47.00
2022-12-08T13:11:16.609Z,48.00
2022-12-08T13:14:03.883Z,43.20
2022-12-08T13:16:53.152Z,47.75
2022-12-08T13:19:21.418Z,50.60
2022-12-08T13:21:49.056Z,51.00
2022-12-08T13:24:24.834Z,42.50
2022-12-08T13:26:51.246Z,48.50
2022-12-08T13:29:19.225Z,50.75
2022-12-08T13:31:50.627Z,47.75
2022-12-08T13:34:24.479Z,49.00
2022-12-08T13:37:11.195Z,49.60
2022-12-08T13:39:44.432Z,52.75
2022-12-08T13:42:20.342Z,49.25
2022-12-08T13:47:59.606Z,52.00
2022-12-08T13:50:55.722Z,50.75
2022-12-08T13:58:48.466Z,47.40
2022-12-08T14:01:23.200Z,45.00
2022-12-08T14:06:45.718Z,47.00
2022-12-08T14:09:23.007Z,44.75
2022-12-08T14:11:52.654Z,39.80
2022-12-08T14:14:54.039Z,40.00
2022-12-08T14:17:13.917Z,44.00
2022-12-08T14:19:43.327Z,45.25
2022-12-08T14:22:16.232Z,46.40
2022-12-08T14:24:50.268Z,40.60
2022-12-08T14:27:18.557Z,40.75
2022-12-08T14:29:46.275Z,40.50
2022-12-08T14:32:19.831Z,37.40
2022-12-08T14:34:50.715Z,42.75
2022-12-08T14:37:17.210Z,42.50
2022-12-08T14:39:43.737Z,41.00
2022-12-08T14:42:26.561Z,38.75
2022-12-08T14:44:57.440Z,44.80
2022-12-08T14:47:28.698Z,41.25
2022-12-08T14:49:55.165Z,40.40
2022-12-08T14:52:21.726Z,42.50
2022-12-08T14:54:49.655Z,46.50
2022-12-08T14:57:16.217Z,46.40
2022-12-08T14:59:43.458Z,46.60
2022-12-08T15:02:16.132Z,46.50
2022-12-08T15:04:44.095Z,52.00
2022-12-08T15:07:15.174Z,51.20
2022-12-08T15:09:46.104Z,53.50
2022-12-08T15:12:12.540Z,49.50
2022-12-08T15:14:43.111Z,45.25
2022-12-08T15:17:32.833Z,47.40
2022-12-08T15:20:00.124Z,49.40
2022-12-08T15:22:29.281Z,46.50
2022-12-08T15:24:56.130Z,50.25
2022-12-08T15:27:23.869Z,45.00
2022-12-08T15:29:50.831Z,52.80
2022-12-08T15:32:18.847Z,49.20
2022-12-08T15:34:45.266Z,47.60
2022-12-08T15:37:22.483Z,52.00
2022-12-08T15:39:49.124Z,44.80
2022-12-08T15:42:15.666Z,46.40
2022-12-08T15:44:42.338Z,47.40
2022-12-08T15:47:14.953Z,52.00
2022-12-08T15:49:41.495Z,45.00
2022-12-08T15:52:15.213Z,52.75
2022-12-08T15:54:41.748Z,50.60
2022-12-08T15:57:21.545Z,50.00
2022-12-08T15:59:56.441Z,52.00
2022-12-08T16:02:25.033Z,52.00
2022-12-08T16:07:38.556Z,50.60
2022-12-08T16:10:06.350Z,43.50
2022-12-08T16:15:55.190Z,49.00
2022-12-08T16:18:27.657Z,49.00
2022-12-08T16:21:22.715Z,54.00
2022-12-08T16:23:44.253Z,51.20
2022-12-08T16:26:28.663Z,47.33
2022-12-08T16:28:59.710Z,53.25
2022-12-08T16:31:26.259Z,50.00
2022-12-08T16:33:52.765Z,50.40
2022-12-08T16:36:19.255Z,53.50
2022-12-08T16:38:45.971Z,55.00
2022-12-08T16:41:34.635Z,58.80
2022-12-08T16:44:02.079Z,61.00
2022-12-08T16:46:28.889Z,61.00
2022-12-08T16:48:57.073Z,140.60
2022-12-08T16:51:27.093Z,77.20
2022-12-08T16:53:54.308Z,70.80
2022-12-08T16:56:28.789Z,67.25
2022-12-08T16:58:58.556Z,59.00
2022-12-08T17:01:25.120Z,60.00
2022-12-08T17:04:14.364Z,56.75
2022-12-08T17:06:38.110Z,64.25
2022-12-08T17:09:04.707Z,50.00
2022-12-08T17:11:36.240Z,55.50
2022-12-08T17:14:05.802Z,59.00
2022-12-08T17:16:32.372Z,60.00
2022-12-08T17:18:58.887Z,52.25
2022-12-08T17:21:25.398Z,53.20
2022-12-08T17:23:51.917Z,52.00
2022-12-08T17:26:18.375Z,57.20
2022-12-08T17:28:59.960Z,53.33
2022-12-08T17:31:29.992Z,56.00
2022-12-08T17:34:05.010Z,57.50
2022-12-08T17:36:31.798Z,57.25
2022-12-08T17:39:01.379Z,61.33
2022-12-08T17:41:28.373Z,60.00
2022-12-08T17:43:55.297Z,55.40
2022-12-08T17:46:22.638Z,87.00
2022-12-08T17:48:49.630Z,83.00
2022-12-08T17:51:16.081Z,67.75
2022-12-08T17:53:42.579Z,71.20
2022-12-08T17:56:16.317Z,71.00
2022-12-08T17:58:42.839Z,52.50
2022-12-08T18:01:10.154Z,61.75
2022-12-08T18:03:37.219Z,58.25
2022-12-08T18:06:05.176Z,99.75
2022-12-08T18:08:31.700Z,69.25
2022-12-08T18:10:58.152Z,65.00
2022-12-08T18:13:24.663Z,56.00
2022-12-08T18:15:51.145Z,50.60
2022-12-08T18:18:17.718Z,47.75
2022-12-08T18:20:44.255Z,82.25
2022-12-08T18:23:10.689Z,86.00
2022-12-08T18:25:37.109Z,65.00
2022-12-08T18:28:03.744Z,57.00
2022-12-08T18:30:30.289Z,55.75
2022-12-08T18:32:57.580Z,67.40
2022-12-08T18:35:24.152Z,58.00
2022-12-08T18:37:50.610Z,60.50
2022-12-08T18:40:17.688Z,57.75
2022-12-08T18:42:44.160Z,57.00
2022-12-08T18:45:10.928Z,57.00
2022-12-08T18:47:38.338Z,61.25
2022-12-08T18:50:06.135Z,55.00
2022-12-08T18:52:32.997Z,49.25
2022-12-08T18:55:07.716Z,54.80
2022-12-08T18:57:36.468Z,51.50
2022-12-08T19:00:04.368Z,52.00
2022-12-08T19:02:31.329Z,55.50
2022-12-08T19:04:57.885Z,52.40
2022-12-08T19:07:24.360Z,49.00
2022-12-08T19:09:51.016Z,50.00
2022-12-08T19:12:17.505Z,52.00
2022-12-08T19:14:44.457Z,46.00
2022-12-08T19:17:11.141Z,47.50
2022-12-08T19:19:37.722Z,43.40
2022-12-08T19:22:04.193Z,52.60
2022-12-08T19:24:32.451Z,51.80
2022-12-08T19:26:58.893Z,52.00
2022-12-08T19:29:25.487Z,50.00
2022-12-08T19:31:52.164Z,51.20
2022-12-08T19:34:19.079Z,74.25
2022-12-08T19:36:45.762Z,49.40
2022-12-08T19:39:35.264Z,53.25
2022-12-08T19:42:20.082Z,43.20
2022-12-08T19:44:52.902Z,44.00
2022-12-08T19:47:23.716Z,49.00
2022-12-08T19:49:50.387Z,56.00
2022-12-08T19:52:17.556Z,85.75
2022-12-08T19:54:44.032Z,64.80
2022-12-08T19:57:11.643Z,48.80
2022-12-08T19:59:38.896Z,25.20
2022-12-08T20:02:06.430Z,10.60
2022-12-08T20:04:33.306Z,11.00
2022-12-08T20:06:59.876Z,17.00
2022-12-08T20:09:26.398Z,14.20
2022-12-08T20:11:54.802Z,25.20
2022-12-08T20:14:22.229Z,34.50
2022-12-08T20:16:48.952Z,34.75
2022-12-08T20:19:15.657Z,37.20
2022-12-08T20:21:42.213Z,30.80
2022-12-08T20:24:08.800Z,25.50
2022-12-08T20:26:35.279Z,20.75
2022-12-08T20:29:01.735Z,22.75
2022-12-08T20:31:30.168Z,17.50
2022-12-08T20:33:56.670Z,19.00
2022-12-08T20:36:23.138Z,20.25
2022-12-08T20:38:50.638Z,23.80
2022-12-08T20:41:18.067Z,26.80
2022-12-08T20:43:45.173Z,23.00
2022-12-08T20:46:13.179Z,18.80
2022-12-08T20:48:39.986Z,22.80
2022-12-08T20:51:06.503Z,39.00
2022-12-08T20:53:33.108Z,19.50
2022-12-08T20:55:59.587Z,14.20
2022-12-08T20:58:26.041Z,15.00
2022-12-08T21:00:52.727Z,15.60
2022-12-08T21:03:19.417Z,19.00
2022-12-08T21:05:50.404Z,18.50
2022-12-08T21:08:17.829Z,19.25
2022-12-08T21:10:45.091Z,21.80
2022-12-08T21:13:11.636Z,21.00
2022-12-08T21:15:38.200Z,19.50
2022-12-08T21:18:04.792Z,17.60
2022-12-08T21:20:31.521Z,18.00
2022-12-08T21:22:58.187Z,18.25
2022-12-08T21:25:24.901Z,18.40
2022-12-08T21:27:51.412Z,19.50
2022-12-08T21:30:18.122Z,16.80
2022-12-08T21:32:44.897Z,14.75
2022-12-08T21:35:11.486Z,17.00
2022-12-08T21:37:38.343Z,16.60
2022-12-08T21:40:05.641Z,16.00
2022-12-08T21:42:44.620Z,17.00
2022-12-08T21:45:12.562Z,13.40
2022-12-08T21:47:39.434Z,12.00
2022-12-08T21:50:07.131Z,12.00
2022-12-08T21:52:36.623Z,11.00
2022-12-08T21:55:03.195Z,15.00
2022-12-08T21:57:29.739Z,11.75
2022-12-08T21:59:56.500Z,9.00
2022-12-08T22:02:23.316Z,8.50
2022-12-08T22:04:50.293Z,16.50
2022-12-08T22:07:17.155Z,13.00
2022-12-08T22:09:44.127Z,10.00
2022-12-08T22:12:11.939Z,16.00
2022-12-08T22:14:40.008Z,9.60
2022-12-08T22:17:07.163Z,11.20
2022-12-08T22:19:34.027Z,10.80
2022-12-08T22:22:00.681Z,12.00
2022-12-08T22:24:29.025Z,8.00
2022-12-08T22:26:55.624Z,10.00
2022-12-08T22:29:22.200Z,10.00
2022-12-08T22:31:48.797Z,10.00
2022-12-08T22:34:15.437Z,11.20
2022-12-08T22:36:42.656Z,9.20
2022-12-08T22:39:09.882Z,11.00
2022-12-08T22:41:36.403Z,8.00
2022-12-08T22:44:06.083Z,9.80
2022-12-08T22:46:32.755Z,9.50
2022-12-08T22:48:59.451Z,10.80
2022-12-08T22:51:26.314Z,19.00
2022-12-08T22:53:53.047Z,10.00
2022-12-08T22:56:19.733Z,13.25
2022-12-08T22:58:46.901Z,8.00
2022-12-08T23:01:32.270Z,9.00
2022-12-08T23:04:00.073Z,7.80
2022-12-08T23:06:27.437Z,8.75
2022-12-08T23:08:54.817Z,7.60
2022-12-08T23:11:22.678Z,10.20
2022-12-08T23:13:49.158Z,8.75
2022-12-08T23:16:16.108Z,7.80
2022-12-08T23:18:44.006Z,5.80
2022-12-08T23:21:12.720Z,6.00
2022-12-08T23:23:39.623Z,6.40
2022-12-08T23:26:14.890Z,5.40
2022-12-08T23:28:41.487Z,9.60
2022-12-08T23:31:08.394Z,6.00
2022-12-08T23:33:35.105Z,11.00
2022-12-08T23:36:01.815Z,9.00
2022-12-08T23:38:28.282Z,7.00
2022-12-08T23:40:54.941Z,10.50
2022-12-08T23:43:21.611Z,10.80
2022-12-08T23:45:48.508Z,10.00
2022-12-08T23:48:15.501Z,8.00
2022-12-08T23:50:42.008Z,7.80
2022-12-08T23:53:08.525Z,7.50
2022-12-08T23:55:35.276Z,8.60
2022-12-08T23:58:01.936Z,9.00
